Time;durP1;ratioP1;P1;durP2;ratioP2;P2;SDS_P1;SDS_P2;PMS_P1;PMS_P2;Temp;Humidity;BMP_temperature;BMP_pressure;BME280_temperature;BME280_humidity;BME280_pressure;Samples;Min_cycle;Max_cycle;Signal;HPM_P1;HPM_P2
2022/11/23 00:01:15;;;;;;;6.10;2.93;;;;;;;9.22;56.32;96138.56;5027193;28;20446;-70
2022/11/23 00:03:41;;;;;;;3.70;2.73;;;;;;;9.12;56.40;96135.34;5043454;28;20553;-70
2022/11/23 00:06:06;;;;;;;6.13;3.00;;;;;;;9.06;56.60;96142.06;5046558;28;20468;-70
2022/11/23 00:08:32;;;;;;;4.37;2.73;;;;;;;9.05;56.64;96142.19;5049379;28;20183;-69
2022/11/23 00:10:58;;;;;;;5.83;2.50;;;;;;;8.99;56.27;96140.28;5048617;28;20282;-70
2022/11/23 00:13:23;;;;;;;8.00;3.00;;;;;;;8.99;56.58;96141.06;5043659;28;20192;-71
2022/11/23 00:15:48;;;;;;;9.10;3.07;;;;;;;8.91;56.95;96141.13;5049271;28;20469;-69
2022/11/23 00:18:14;;;;;;;11.23;3.40;;;;;;;8.95;57.07;96145.00;5043225;28;20270;-68
2022/11/23 00:20:40;;;;;;;6.37;2.90;;;;;;;8.91;56.55;96141.91;5050108;28;20211;-70
2022/11/23 00:23:05;;;;;;;4.00;2.80;;;;;;;8.91;57.15;96131.47;5044896;28;20270;-69
2022/11/23 00:25:31;;;;;;;6.73;3.10;;;;;;;8.84;56.88;96134.91;5049586;28;20206;-70
2022/11/23 00:27:56;;;;;;;6.10;3.30;;;;;;;8.74;57.29;96143.75;5048164;28;20285;-69
2022/11/23 00:30:21;;;;;;;5.23;2.70;;;;;;;8.81;57.10;96140.50;5042840;28;20265;-69
2022/11/23 00:32:47;;;;;;;7.50;2.90;;;;;;;8.82;56.87;96148.16;5043949;28;20200;-71
2022/11/23 00:35:12;;;;;;;4.60;2.97;;;;;;;8.83;57.15;96156.78;5031658;28;20670;-70
2022/11/23 00:37:38;;;;;;;4.27;3.17;;;;;;;8.80;56.85;96142.28;5044164;28;20370;-70
2022/11/23 00:40:04;;;;;;;5.83;2.90;;;;;;;8.84;57.20;96150.59;5046445;28;20336;-72
2022/11/23 00:42:29;;;;;;;8.93;3.40;;;;;;;8.79;56.95;96153.69;5045188;28;20600;-69
2022/11/23 00:44:55;;;;;;;5.07;2.80;;;;;;;8.78;57.27;96149.47;5046509;28;20450;-70
2022/11/23 00:47:20;;;;;;;9.00;2.70;;;;;;;8.73;57.40;96146.53;5033297;28;20241;-70
2022/11/23 00:49:46;;;;;;;10.93;2.97;;;;;;;8.73;57.13;96144.72;5048781;28;20281;-71
2022/11/23 00:52:11;;;;;;;5.10;2.73;;;;;;;8.75;57.27;96147.19;5044208;28;20262;-71
2022/11/23 00:54:37;;;;;;;4.50;2.37;;;;;;;8.74;57.06;96148.19;5039952;28;20215;-68
2022/11/23 00:57:02;;;;;;;8.27;2.20;;;;;;;8.79;56.64;96147.69;5045219;28;20183;-67
2022/11/23 00:59:28;;;;;;;2.63;2.13;;;;;;;8.82;56.25;96147.34;5036026;28;20208;-69
2022/11/23 01:01:54;;;;;;;9.20;2.80;;;;;;;8.79;55.84;96147.69;5022672;28;20194;-68
2022/11/23 01:04:19;;;;;;;8.30;2.87;;;;;;;8.75;55.97;96148.00;5040207;28;20447;-69
2022/11/23 01:06:45;;;;;;;9.07;2.80;;;;;;;8.68;56.41;96147.06;5027991;28;20222;-71
2022/11/23 01:09:16;;;;;;;6.10;2.53;;;;;;;8.64;56.12;96145.75;5034758;28;20197;-71
2022/11/23 01:11:42;;;;;;;8.30;2.40;;;;;;;8.61;55.96;96146.06;5034620;28;20266;-69
2022/11/23 01:14:08;;;;;;;4.33;2.80;;;;;;;8.59;55.78;96148.03;5047265;28;20464;-70
2022/11/23 01:16:36;;;;;;;4.90;2.40;;;;;;;8.58;56.09;96142.00;5040449;28;20525;-68
2022/11/23 01:19:07;;;;;;;5.67;3.13;;;;;;;8.55;56.66;96142.31;5042842;28;20669;-70
2022/11/23 01:21:34;;;;;;;3.10;2.03;;;;;;;8.62;57.03;96141.66;5046450;28;20425;-71
2022/11/23 01:24:03;;;;;;;7.30;2.67;;;;;;;8.68;57.25;96141.00;5048013;28;20429;-70
2022/11/23 01:26:29;;;;;;;7.80;2.40;;;;;;;8.73;57.11;96149.16;5048569;28;20466;-70
2022/11/23 01:28:54;;;;;;;3.73;2.00;;;;;;;8.80;57.14;96144.09;5039888;28;20999;-70
2022/11/23 01:31:22;;;;;;;5.17;2.40;;;;;;;8.84;57.24;96140.13;5049052;28;20719;-70
2022/11/23 01:33:55;;;;;;;5.63;2.23;;;;;;;8.79;56.95;96137.22;5035034;28;20654;-70
2022/11/23 01:36:24;;;;;;;5.57;1.80;;;;;;;8.86;56.91;96139.00;5031485;28;20421;-71
2022/11/23 01:38:49;;;;;;;4.60;2.10;;;;;;;8.85;57.25;96137.38;5044061;28;20423;-70
2022/11/23 01:41:20;;;;;;;5.70;1.83;;;;;;;8.79;56.78;96150.28;5042921;28;21026;-69
2022/11/23 01:43:46;;;;;;;4.10;2.03;;;;;;;8.83;57.75;96139.34;5045048;28;20277;-69
2022/11/23 01:46:11;;;;;;;4.63;2.17;;;;;;;8.84;57.85;96145.34;5039050;28;20466;-70
2022/11/23 01:49:02;;;;;;;2.60;1.87;;;;;;;8.83;57.31;96149.78;5048949;28;20191;-70
2022/11/23 01:51:40;;;;;;;8.03;2.10;;;;;;;8.87;57.74;96145.88;5042820;28;20573;-71
2022/11/23 01:54:10;;;;;;;4.10;2.00;;;;;;;8.85;57.12;96150.44;5045807;28;20425;-70
2022/11/23 01:56:39;;;;;;;6.47;1.90;;;;;;;8.82;57.62;96144.72;5044346;28;20937;-70
2022/11/23 01:59:08;;;;;;;6.00;2.10;;;;;;;8.72;56.92;96152.75;5029782;28;20422;-70
2022/11/23 02:01:34;;;;;;;5.77;2.70;;;;;;;8.62;55.81;96157.34;5029610;28;20425;-70
2022/11/23 02:04:00;;;;;;;3.70;2.17;;;;;;;8.58;56.60;96162.06;5034474;28;20453;-70
2022/11/23 02:06:26;;;;;;;4.23;1.90;;;;;;;8.61;57.41;96161.72;5035871;28;20919;-70
2022/11/23 02:08:52;;;;;;;3.70;1.87;;;;;;;8.68;56.98;96162.72;5040319;28;20422;-70
2022/11/23 02:11:18;;;;;;;8.23;2.60;;;;;;;8.66;57.85;96164.69;5047344;28;20218;-70
2022/11/23 02:13:44;;;;;;;6.10;2.20;;;;;;;8.70;57.69;96159.94;5044140;28;20792;-70
2022/11/23 02:16:10;;;;;;;4.30;2.47;;;;;;;8.63;56.92;96165.00;5029318;28;20183;-70
2022/11/23 02:18:36;;;;;;;4.67;2.47;;;;;;;8.64;57.48;96160.59;5043454;28;20434;-70
2022/11/23 02:21:03;;;;;;;9.43;2.30;;;;;;;8.68;57.50;96162.72;5040557;28;20219;-70
2022/11/23 02:24:01;;;;;;;5.60;2.60;;;;;;;8.67;57.71;96160.25;5031782;28;21081;-70
2022/11/23 02:26:30;;;;;;;9.80;2.60;;;;;;;8.68;56.83;96161.88;5043752;28;20548;-70
2022/11/23 02:29:11;;;;;;;4.57;2.33;;;;;;;8.64;57.01;96163.19;5048385;28;20433;-69
2022/11/23 02:31:37;;;;;;;5.60;2.60;;;;;;;8.63;57.14;96164.19;5037350;28;20520;-69
2022/11/23 02:34:02;;;;;;;6.13;1.70;;;;;;;8.67;57.37;96162.88;5040802;28;20533;-70
2022/11/23 02:36:49;;;;;;;4.17;1.67;;;;;;;8.74;57.26;96164.66;5039546;28;20219;-69
2022/11/23 02:39:16;;;;;;;3.77;1.50;;;;;;;8.81;56.94;96164.81;5015052;28;20685;-70
2022/11/23 02:41:50;;;;;;;7.63;2.13;;;;;;;8.78;57.75;96166.94;5040428;28;20426;-69
2022/11/23 02:45:09;;;;;;;4.57;2.40;;;;;;;8.81;57.05;96171.84;5042008;28;20462;-70
2022/11/23 02:47:35;;;;;;;2.33;1.80;;;;;;;8.69;57.83;96169.56;4987108;28;20494;-71
2022/11/23 02:50:00;;;;;;;7.00;2.17;;;;;;;8.73;57.84;96170.06;5036425;28;20461;-70
2022/11/23 02:52:26;;;;;;;4.00;1.87;;;;;;;8.73;57.33;96165.63;5049149;28;20256;-71
2022/11/23 02:54:51;;;;;;;4.90;2.00;;;;;;;8.78;57.42;96172.16;5042262;28;20263;-69
2022/11/23 02:57:17;;;;;;;3.63;2.07;;;;;;;8.79;56.89;96171.19;5047022;28;20194;-70
2022/11/23 02:59:42;;;;;;;4.10;1.57;;;;;;;8.80;57.92;96165.78;5035813;28;20306;-70
2022/11/23 03:02:08;;;;;;;5.83;1.70;;;;;;;8.79;57.93;96173.81;5038693;28;20276;-69
2022/11/23 03:04:33;;;;;;;5.93;1.70;;;;;;;8.83;57.29;96168.06;5042781;28;20178;-69
2022/11/23 03:06:59;;;;;;;5.27;1.97;;;;;;;8.81;57.73;96166.63;5031469;28;20183;-69
2022/11/23 03:09:27;;;;;;;3.37;1.50;;;;;;;8.74;57.42;96172.50;5044600;28;20665;-68
2022/11/23 03:11:53;;;;;;;4.60;1.67;;;;;;;8.83;57.42;96168.06;5039735;28;20190;-72
2022/11/23 03:14:18;;;;;;;3.67;1.60;;;;;;;8.87;56.98;96165.94;5048570;28;20417;-70
2022/11/23 03:16:43;;;;;;;7.03;1.83;;;;;;;8.85;57.36;96157.44;5040695;28;20187;-69
2022/11/23 03:19:09;;;;;;;6.20;1.80;;;;;;;8.84;57.74;96161.03;5039647;28;20274;-71
2022/11/23 03:21:37;;;;;;;2.13;1.80;;;;;;;8.89;57.54;96158.75;5046000;28;20248;-70
2022/11/23 03:24:03;;;;;;;6.50;2.20;;;;;;;8.82;57.62;96168.25;5022229;28;20427;-70
2022/11/23 03:26:28;;;;;;;6.07;2.23;;;;;;;8.79;57.76;96172.00;5048643;28;20214;-70
2022/11/23 03:28:54;;;;;;;3.70;2.33;;;;;;;8.59;56.27;96169.75;5041185;28;20661;-70
2022/11/23 03:31:19;;;;;;;4.20;2.30;;;;;;;8.48;55.12;96171.88;5048283;28;20207;-70
2022/11/23 03:33:44;;;;;;;5.00;1.80;;;;;;;8.27;55.95;96168.72;5035705;28;20191;-70
2022/11/23 03:36:10;;;;;;;3.80;1.97;;;;;;;8.21;57.41;96172.00;5037846;28;20192;-70
2022/11/23 03:38:35;;;;;;;3.90;1.90;;;;;;;8.22;57.08;96172.81;5033416;28;20193;-69
2022/11/23 03:41:01;;;;;;;6.60;2.13;;;;;;;8.22;57.83;96167.59;5044827;28;20542;-70
2022/11/23 03:43:26;;;;;;;8.40;2.40;;;;;;;8.22;57.73;96172.81;5048792;28;20261;-69
2022/11/23 03:45:52;;;;;;;2.90;1.73;;;;;;;8.30;58.24;96172.84;5040393;28;20261;-70
2022/11/23 03:48:17;;;;;;;7.40;1.70;;;;;;;8.35;57.78;96173.16;5046462;28;20187;-70
2022/11/23 03:50:43;;;;;;;7.00;1.70;;;;;;;8.36;58.22;96166.94;5037862;28;20214;-68
2022/11/23 03:53:08;;;;;;;2.73;1.40;;;;;;;8.38;57.73;96166.81;5044300;28;20203;-69
2022/11/23 03:55:34;;;;;;;5.87;2.27;;;;;;;8.37;58.02;96159.94;5043863;28;20183;-68
2022/11/23 03:57:59;;;;;;;3.00;1.93;;;;;;;8.41;58.20;96161.22;5041517;28;20184;-70
2022/11/23 04:00:28;;;;;;;4.70;2.20;;;;;;;8.38;57.65;96157.16;5035411;28;20213;-69
2022/11/23 04:02:54;;;;;;;7.27;2.10;;;;;;;8.42;57.43;96155.88;5033760;28;20618;-70
2022/11/23 04:05:19;;;;;;;6.13;2.63;;;;;;;8.42;57.68;96165.47;5013397;28;20560;-68
2022/11/23 04:07:46;;;;;;;5.87;2.30;;;;;;;8.44;57.87;96161.72;5021771;28;20187;-70
2022/11/23 04:10:16;;;;;;;4.77;2.27;;;;;;;8.43;57.32;96156.66;5034766;28;20687;-73
2022/11/23 04:12:42;;;;;;;2.13;1.60;;;;;;;8.41;57.93;96156.84;5043927;28;20468;-69
2022/11/23 04:15:08;;;;;;;3.53;2.10;;;;;;;8.44;57.75;96146.03;5044827;28;20618;-70
2022/11/23 04:17:34;;;;;;;6.00;2.70;;;;;;;8.39;57.19;96147.53;5026487;28;20252;-70
2022/11/23 04:19:59;;;;;;;5.13;1.80;;;;;;;8.41;57.45;96148.19;5023234;28;20210;-69
2022/11/23 04:22:25;;;;;;;4.87;2.03;;;;;;;8.40;57.26;96149.97;5043632;28;20426;-71
2022/11/23 04:24:50;;;;;;;4.77;2.10;;;;;;;8.33;58.01;96148.19;5025215;28;20754;-71
2022/11/23 04:27:16;;;;;;;5.67;2.93;;;;;;;8.37;57.13;96150.31;5042881;28;20198;-70
2022/11/23 04:29:41;;;;;;;6.00;2.97;;;;;;;8.41;57.65;96154.22;5043698;28;20290;-70
2022/11/23 04:32:06;;;;;;;5.20;3.20;;;;;;;8.38;57.54;96146.72;5045977;28;20190;-68
2022/11/23 04:34:32;;;;;;;7.17;3.67;;;;;;;8.38;57.18;96144.09;5018739;28;20206;-68
2022/11/23 04:36:58;;;;;;;6.73;2.83;;;;;;;8.36;57.77;96156.50;5038251;28;20191;-70
2022/11/23 04:39:23;;;;;;;3.13;2.07;;;;;;;8.34;57.72;96150.63;5033877;28;20722;-70
2022/11/23 04:41:49;;;;;;;5.60;2.07;;;;;;;8.39;57.10;96147.53;5049963;28;20232;-69
2022/11/23 04:44:14;;;;;;;5.80;2.53;;;;;;;8.38;57.69;96151.94;5038907;28;20619;-71
2022/11/23 04:46:39;;;;;;;4.60;2.10;;;;;;;8.41;57.79;96156.00;5038732;28;20214;-70
2022/11/23 04:49:05;;;;;;;7.00;2.37;;;;;;;8.38;58.17;96149.31;5047689;28;20179;-70
2022/11/23 04:51:31;;;;;;;5.30;2.20;;;;;;;8.34;58.04;96148.00;5037903;28;20207;-69
2022/11/23 04:53:56;;;;;;;4.30;1.97;;;;;;;8.42;58.59;96147.19;5016556;28;20330;-70
2022/11/23 04:56:22;;;;;;;4.40;2.23;;;;;;;8.46;57.94;96138.88;5038198;28;20184;-69
2022/11/23 04:58:47;;;;;;;3.70;2.07;;;;;;;8.49;57.23;96142.16;5042759;28;20290;-69
2022/11/23 05:01:12;;;;;;;3.37;1.83;;;;;;;8.46;58.14;96146.69;5035875;28;20207;-70
2022/11/23 05:03:38;;;;;;;4.60;2.57;;;;;;;8.40;57.81;96144.75;5042596;28;20274;-70
2022/11/23 05:06:06;;;;;;;3.40;2.00;;;;;;;8.48;57.67;96145.75;5043267;28;20211;-70
2022/11/23 05:08:31;;;;;;;3.87;2.07;;;;;;;8.49;58.11;96152.59;5017492;28;20188;-69
2022/11/23 05:10:57;;;;;;;5.33;2.10;;;;;;;8.42;57.48;96147.19;5038656;28;20529;-71
2022/11/23 05:13:22;;;;;;;7.70;2.43;;;;;;;8.46;57.36;96149.31;5045032;28;20221;-69
2022/11/23 05:15:48;;;;;;;3.53;2.20;;;;;;;8.45;57.54;96146.88;5049500;28;20194;-70
2022/11/23 05:18:13;;;;;;;9.93;2.17;;;;;;;8.42;57.82;96147.19;5004607;28;20189;-69
2022/11/23 05:20:39;;;;;;;3.50;2.13;;;;;;;8.35;57.26;96141.81;5043345;28;20210;-69
2022/11/23 05:23:04;;;;;;;5.43;2.63;;;;;;;8.28;57.96;96148.69;5045584;28;20610;-69
2022/11/23 05:25:30;;;;;;;3.00;2.57;;;;;;;8.32;57.56;96142.13;5035282;28;20195;-69
2022/11/23 05:27:55;;;;;;;3.57;2.30;;;;;;;8.29;57.88;96140.69;5038429;28;20192;-69
2022/11/23 05:30:21;;;;;;;4.23;2.53;;;;;;;8.35;58.21;96144.44;5042403;28;20208;-69
2022/11/23 05:32:47;;;;;;;7.30;2.97;;;;;;;8.33;57.92;96146.38;5044831;28;20199;-69
2022/11/23 05:35:13;;;;;;;4.57;1.93;;;;;;;8.38;58.18;96146.72;5037755;28;20266;-69
2022/11/23 05:37:38;;;;;;;6.80;2.30;;;;;;;8.44;57.97;96143.44;5025107;28;20214;-69
2022/11/23 05:40:04;;;;;;;5.87;2.70;;;;;;;8.45;57.93;96137.22;5047239;28;20528;-69
2022/11/23 05:42:30;;;;;;;5.97;2.90;;;;;;;8.38;58.04;96141.50;5046536;28;20669;-69
2022/11/23 05:44:55;;;;;;;7.93;3.30;;;;;;;8.42;58.42;96142.81;5037676;28;20432;-68
2022/11/23 05:47:21;;;;;;;4.43;3.17;;;;;;;8.46;57.97;96138.88;5032146;28;20709;-69
2022/11/23 05:49:46;;;;;;;7.77;2.97;;;;;;;8.57;57.52;96144.75;5031832;28;20199;-69
2022/11/23 05:52:12;;;;;;;3.37;3.00;;;;;;;8.59;57.52;96145.41;5045773;28;20217;-69
2022/11/23 05:54:37;;;;;;;7.33;2.20;;;;;;;8.59;57.38;96150.63;5041154;28;20246;-70
2022/11/23 05:57:03;;;;;;;5.63;1.87;;;;;;;8.59;57.41;96148.03;5037851;28;20665;-69
2022/11/23 05:59:28;;;;;;;5.93;2.37;;;;;;;8.72;58.08;96153.56;5044364;28;20195;-69
2022/11/23 06:01:54;;;;;;;2.93;1.90;;;;;;;8.62;57.36;96152.91;5028485;28;20241;-68
2022/11/23 06:04:19;;;;;;;6.37;2.37;;;;;;;8.66;57.75;96148.19;5030806;28;20652;-69
2022/11/23 06:06:44;;;;;;;5.57;1.80;;;;;;;8.68;57.77;96138.38;5040555;28;20207;-69
2022/11/23 06:09:10;;;;;;;10.43;2.63;;;;;;;8.75;57.49;96134.13;5046667;28;20191;-70
2022/11/23 06:11:36;;;;;;;3.47;1.80;;;;;;;8.76;57.42;96133.13;5026627;28;20212;-70
2022/11/23 06:14:01;;;;;;;5.90;2.00;;;;;;;8.75;56.88;96134.94;5024255;28;20656;-70
2022/11/23 06:16:27;;;;;;;7.20;1.80;;;;;;;8.79;56.96;96142.44;5029010;28;20187;-71
2022/11/23 06:18:52;;;;;;;7.27;1.67;;;;;;;8.78;56.98;96138.19;5026284;28;20196;-71
2022/11/23 06:21:18;;;;;;;6.03;2.00;;;;;;;8.68;57.25;96141.81;5028258;28;20208;-71
2022/11/23 06:23:45;;;;;;;6.10;2.17;;;;;;;8.67;57.78;96150.63;5036613;28;20184;-72
2022/11/23 06:26:11;;;;;;;3.63;1.80;;;;;;;8.62;57.30;96145.09;5037007;28;20211;-71
2022/11/23 06:28:36;;;;;;;14.83;6.40;;;;;;;8.74;58.79;96141.16;5026061;28;20542;-72
2022/11/23 06:31:04;;;;;;;8.60;5.30;;;;;;;8.82;58.65;96132.47;5030927;28;20196;-71
2022/11/23 06:33:29;;;;;;;7.73;3.53;;;;;;;8.84;57.89;96134.91;5025321;28;20209;-70
2022/11/23 06:35:56;;;;;;;9.30;4.53;;;;;;;8.85;58.01;96149.59;5027941;28;20919;-70
2022/11/23 06:38:22;;;;;;;9.30;3.80;;;;;;;8.84;57.38;96142.75;5025422;28;20207;-70
2022/11/23 06:40:47;;;;;;;8.50;3.10;;;;;;;8.83;57.44;96139.34;5019833;28;21019;-70
2022/11/23 06:43:12;;;;;;;13.90;4.10;;;;;;;8.86;58.03;96128.56;5035731;28;20747;-71
2022/11/23 06:45:38;;;;;;;5.00;2.50;;;;;;;8.89;58.25;96132.63;5020767;28;20230;-71
2022/11/23 06:48:04;;;;;;;3.63;2.10;;;;;;;8.85;57.47;96147.81;5034493;28;20227;-71
2022/11/23 06:50:29;;;;;;;3.37;1.90;;;;;;;8.83;57.11;96148.94;5027106;28;20884;-70
2022/11/23 06:52:56;;;;;;;11.80;2.80;;;;;;;8.62;57.51;96147.69;5045019;28;20434;-72
2022/11/23 06:55:22;;;;;;;7.60;3.07;;;;;;;8.44;57.69;96148.66;5024709;28;20661;-72
2022/11/23 06:57:48;;;;;;;6.07;3.47;;;;;;;8.48;58.13;96149.19;5049402;28;20437;-72
2022/11/23 07:00:14;;;;;;;9.63;3.80;;;;;;;8.51;57.99;96155.88;5021071;28;20451;-70
2022/11/23 07:02:39;;;;;;;6.67;3.37;;;;;;;8.40;57.83;96162.22;5014781;28;20196;-71
2022/11/23 07:05:05;;;;;;;7.33;3.57;;;;;;;8.35;58.36;96164.50;5033195;28;20475;-70
2022/11/23 07:07:31;;;;;;;10.80;3.50;;;;;;;8.34;57.90;96165.50;5038507;28;20198;-70
2022/11/23 07:09:56;;;;;;;6.67;3.30;;;;;;;8.28;58.38;96172.19;5023888;28;20446;-70
2022/11/23 07:12:22;;;;;;;5.23;2.60;;;;;;;8.29;58.24;96163.38;5022095;28;20202;-70
2022/11/23 07:14:47;;;;;;;10.20;3.33;;;;;;;8.28;58.31;96172.19;5025950;28;20241;-70
2022/11/23 07:17:13;;;;;;;11.83;2.97;;;;;;;8.25;58.20;96169.88;5031249;28;20208;-70
2022/11/23 07:19:38;;;;;;;9.90;3.17;;;;;;;8.25;58.31;96169.88;5024796;28;20634;-71
2022/11/23 07:22:04;;;;;;;5.90;2.60;;;;;;;8.28;58.25;96164.34;5009248;28;20180;-70
2022/11/23 07:24:29;;;;;;;5.83;3.70;;;;;;;8.35;58.08;96170.53;5024111;28;20183;-71
2022/11/23 07:26:55;;;;;;;8.37;3.63;;;;;;;8.37;58.28;96170.38;5026570;28;20641;-73
2022/11/23 07:29:20;;;;;;;8.67;2.23;;;;;;;8.39;58.24;96171.03;5034811;28;20187;-71
2022/11/23 07:31:46;;;;;;;26.23;14.10;;;;;;;8.49;58.07;96163.06;5007368;28;20195;-71
2022/11/23 07:34:11;;;;;;;26.63;14.23;;;;;;;8.68;58.74;96170.56;5025396;28;20267;-71
2022/11/23 07:36:37;;;;;;;23.13;11.50;;;;;;;9.00;58.66;96170.66;5008025;28;20180;-71
2022/11/23 07:39:02;;;;;;;17.60;7.70;;;;;;;9.35;57.90;96164.16;5028220;28;20204;-71
2022/11/23 07:41:28;;;;;;;5.63;2.70;;;;;;;9.71;56.10;96168.06;5035782;28;20250;-71
2022/11/23 07:43:53;;;;;;;5.40;3.00;;;;;;;9.92;54.91;96175.31;5033312;28;20191;-72
2022/11/23 07:46:19;;;;;;;5.73;3.10;;;;;;;10.16;53.33;96173.50;5033659;28;20204;-71
2022/11/23 07:48:44;;;;;;;9.33;2.90;;;;;;;10.43;53.09;96174.00;5043075;28;20187;-71
2022/11/23 07:51:10;;;;;;;5.33;2.80;;;;;;;10.77;52.52;96172.69;5000850;28;20295;-71
2022/11/23 07:53:35;;;;;;;5.63;3.07;;;;;;;11.04;51.57;96173.09;5017018;28;20275;-71
2022/11/23 07:56:01;;;;;;;5.40;2.83;;;;;;;11.30;51.12;96170.00;5024574;28;20180;-72
2022/11/23 07:58:26;;;;;;;6.53;3.10;;;;;;;11.56;50.83;96175.78;5036427;28;20187;-72
2022/11/23 08:00:52;;;;;;;4.47;2.87;;;;;;;11.79;50.11;96167.75;5029378;28;20220;-70
2022/11/23 08:03:18;;;;;;;9.60;3.10;;;;;;;12.00;49.44;96171.44;5019648;28;20343;-72
2022/11/23 08:05:44;;;;;;;11.70;2.83;;;;;;;12.40;48.34;96177.88;5009438;28;20286;-72
2022/11/23 08:08:10;;;;;;;5.20;2.20;;;;;;;12.59;47.41;96178.25;5016822;28;20511;-71
2022/11/23 08:10:36;;;;;;;10.67;2.47;;;;;;;12.69;47.12;96178.72;5030042;28;20210;-71
2022/11/23 08:13:05;;;;;;;7.37;2.30;;;;;;;12.80;46.67;96181.84;5030021;28;20521;-70
2022/11/23 08:15:30;;;;;;;7.90;2.43;;;;;;;12.95;46.61;96179.91;5024076;28;20190;-71
2022/11/23 08:17:57;;;;;;;4.80;2.20;;;;;;;13.18;45.84;96186.72;5038251;28;20925;-71
2022/11/23 08:20:23;;;;;;;9.07;2.20;;;;;;;13.34;44.97;96183.78;5021586;28;20199;-70
2022/11/23 08:22:49;;;;;;;5.87;2.27;;;;;;;13.11;45.24;96180.59;5037311;28;20425;-70
2022/11/23 08:25:14;;;;;;;5.50;2.17;;;;;;;13.31;45.79;96184.19;5028000;28;20517;-71
2022/11/23 08:27:40;;;;;;;5.87;2.13;;;;;;;13.50;45.09;96179.22;5039493;28;20183;-72
2022/11/23 08:30:06;;;;;;;4.30;2.40;;;;;;;13.63;44.77;96183.75;5034462;28;20210;-71
2022/11/23 08:32:31;;;;;;;8.03;2.80;;;;;;;13.67;44.57;96182.34;5040963;28;20247;-71
2022/11/23 08:34:56;;;;;;;5.73;1.63;;;;;;;13.89;44.27;96179.59;5034164;28;20425;-71
2022/11/23 08:37:22;;;;;;;5.37;1.90;;;;;;;14.09;43.88;96180.44;5024778;28;20190;-70
2022/11/23 08:39:47;;;;;;;7.10;1.87;;;;;;;13.88;43.97;96176.13;5036881;28;20908;-71
2022/11/23 08:42:13;;;;;;;4.13;2.30;;;;;;;13.82;44.75;96171.66;5010231;28;20240;-71
2022/11/23 08:44:38;;;;;;;10.47;2.37;;;;;;;14.04;44.25;96180.22;5042735;28;20183;-71
2022/11/23 08:47:04;;;;;;;3.70;1.40;;;;;;;14.11;43.79;96180.25;5040189;28;20319;-69
2022/11/23 08:49:29;;;;;;;6.40;1.67;;;;;;;14.06;43.49;96180.03;5040436;28;20196;-70
2022/11/23 08:51:55;;;;;;;4.00;2.00;;;;;;;14.28;42.90;96184.13;5029344;28;20663;-71
2022/11/23 08:54:23;;;;;;;4.57;1.20;;;;;;;14.39;42.01;96180.09;5047298;28;20365;-69
2022/11/23 08:56:49;;;;;;;6.07;1.67;;;;;;;14.38;41.72;96178.47;5046697;28;20191;-70
2022/11/23 08:59:16;;;;;;;3.03;1.40;;;;;;;14.40;42.06;96181.72;5035579;28;20457;-72
2022/11/23 09:01:42;;;;;;;4.60;1.50;;;;;;;14.36;41.66;96180.47;5042433;28;20450;-72
2022/11/23 09:04:07;;;;;;;3.10;1.30;;;;;;;14.38;41.89;96182.91;5047717;28;21145;-71
2022/11/23 09:06:33;;;;;;;4.73;1.40;;;;;;;14.07;41.07;96181.66;5043618;28;20455;-70
2022/11/23 09:08:58;;;;;;;5.73;1.60;;;;;;;13.89;42.04;96180.38;5048763;28;20194;-71
2022/11/23 09:11:25;;;;;;;4.20;1.50;;;;;;;14.02;42.10;96189.31;5044943;28;20210;-71
2022/11/23 09:13:51;;;;;;;6.67;1.50;;;;;;;14.17;42.12;96187.34;5046285;28;20183;-70
2022/11/23 09:16:16;;;;;;;5.43;1.73;;;;;;;14.36;42.17;96185.75;5049583;28;20859;-71
2022/11/23 09:18:42;;;;;;;5.00;1.70;;;;;;;14.49;41.84;96190.22;5042003;28;20429;-71
2022/11/23 09:21:08;;;;;;;5.07;1.70;;;;;;;14.64;41.63;96186.56;5046885;28;20309;-71
2022/11/23 09:23:34;;;;;;;5.30;1.60;;;;;;;15.05;40.68;96188.19;5043492;28;20548;-71
2022/11/23 09:26:00;;;;;;;3.37;1.43;;;;;;;14.80;40.70;96180.91;5046324;28;20464;-72
2022/11/23 09:28:29;;;;;;;4.03;1.80;;;;;;;14.94;40.96;96184.34;5029319;28;20206;-71
2022/11/23 09:30:55;;;;;;;3.93;1.63;;;;;;;15.40;39.42;96180.00;5046268;28;20850;-71
2022/11/23 09:33:21;;;;;;;6.93;2.20;;;;;;;15.68;38.91;96181.53;5042806;28;20937;-72
2022/11/23 09:35:54;;;;;;;8.57;2.60;;;;;;;15.80;39.37;96179.03;5039712;28;20434;-71
2022/11/23 09:38:20;;;;;;;5.47;1.70;;;;;;;15.61;38.82;96175.47;5046984;28;20504;-72
2022/11/23 09:40:45;;;;;;;7.47;2.00;;;;;;;15.74;38.82;96177.22;5039159;28;20455;-71
2022/11/23 09:43:39;;;;;;;6.03;2.20;;;;;;;16.00;38.56;96184.25;5050762;28;20213;-71
2022/11/23 09:46:24;;;;;;;4.90;1.60;;;;;;;15.99;38.11;96185.28;5038826;28;20258;-71
2022/11/23 09:49:04;;;;;;;2.93;1.40;;;;;;;15.82;38.12;96177.81;5041270;28;20447;-72
2022/11/23 09:51:30;;;;;;;4.80;1.80;;;;;;;15.69;38.27;96175.22;5041319;28;20479;-71
2022/11/23 09:53:59;;;;;;;4.87;1.67;;;;;;;16.08;38.60;96175.25;5047001;28;20433;-72
2022/11/23 09:56:35;;;;;;;9.20;1.77;;;;;;;16.03;37.47;96178.53;5036801;28;20190;-73
2022/11/23 09:59:04;;;;;;;2.03;1.40;;;;;;;16.19;36.51;96177.22;5045174;28;20958;-72
2022/11/23 10:01:30;;;;;;;7.47;1.83;;;;;;;16.04;36.75;96169.59;5037795;28;20508;-71
2022/11/23 10:03:56;;;;;;;5.70;1.87;;;;;;;16.07;37.40;96166.53;5038392;28;20430;-71
2022/11/23 10:06:24;;;;;;;3.70;1.53;;;;;;;16.33;37.35;96167.38;5043802;28;20211;-70
2022/11/23 10:09:00;;;;;;;5.90;2.20;;;;;;;16.27;37.52;96171.69;5044207;28;20449;-71
2022/11/23 10:11:51;;;;;;;2.73;1.40;;;;;;;16.83;36.30;96169.22;5043024;28;20532;-71
2022/11/23 10:14:45;;;;;;;3.47;1.93;;;;;;;16.67;36.03;96159.19;5049669;28;20436;-71
2022/11/23 10:17:25;;;;;;;11.23;2.10;;;;;;;16.89;36.53;96160.41;5027060;28;20418;-70
2022/11/23 10:20:15;;;;;;;7.97;2.30;;;;;;;17.02;36.28;96159.50;5043313;28;20445;-71
2022/11/23 10:22:58;;;;;;;4.83;1.30;;;;;;;17.24;35.73;96151.16;5040619;28;20520;-72
2022/11/23 10:25:25;;;;;;;5.80;1.60;;;;;;;17.44;35.09;96158.03;5042524;28;20553;-71
2022/11/23 10:27:55;;;;;;;4.40;1.70;;;;;;;17.54;34.79;96155.69;5029472;28;20430;-71
2022/11/23 10:30:21;;;;;;;4.37;1.60;;;;;;;17.32;34.89;96160.63;5024859;28;20828;-71
2022/11/23 10:32:59;;;;;;;4.47;1.60;;;;;;;17.78;34.98;96153.97;5044424;28;20438;-72
2022/11/23 10:35:31;;;;;;;2.23;1.43;;;;;;;17.88;34.25;96150.78;5011120;28;21774;-72
2022/11/23 10:38:16;;;;;;;6.27;2.17;;;;;;;18.35;33.57;96155.44;5035459;28;20801;-71
2022/11/23 10:41:09;;;;;;;6.90;2.00;;;;;;;18.49;33.06;96150.75;5038048;28;20816;-72
2022/11/23 10:43:51;;;;;;;4.47;1.73;;;;;;;18.71;32.68;96150.19;5047164;28;20430;-71
2022/11/23 10:46:28;;;;;;;4.07;1.57;;;;;;;18.84;31.99;96147.31;5041561;28;20493;-70
2022/11/23 10:48:54;;;;;;;8.40;1.53;;;;;;;18.77;32.13;96149.28;5038776;28;20539;-71
2022/11/23 10:51:23;;;;;;;3.57;1.80;;;;;;;18.85;32.46;96151.59;5039682;28;20532;-71
2022/11/23 10:53:53;;;;;;;3.63;1.47;;;;;;;18.73;32.46;96143.59;5047633;28;20433;-71
2022/11/23 10:56:19;;;;;;;5.30;1.67;;;;;;;18.55;31.99;96138.41;5042315;28;20429;-70
2022/11/23 10:58:45;;;;;;;4.77;1.83;;;;;;;18.09;32.35;96140.75;5048351;28;20451;-72
2022/11/23 11:01:29;;;;;;;5.33;1.73;;;;;;;18.42;33.13;96131.47;5043173;28;20214;-72
2022/11/23 11:03:56;;;;;;;6.40;1.60;;;;;;;18.21;31.34;96138.94;5031761;28;20426;-71
2022/11/23 11:06:28;;;;;;;4.00;1.77;;;;;;;18.20;32.04;96132.00;5042132;28;20473;-71
2022/11/23 11:08:58;;;;;;;3.07;1.40;;;;;;;18.35;31.69;96125.47;5027079;28;20433;-71
2022/11/23 11:11:26;;;;;;;4.60;1.73;;;;;;;18.54;31.59;96132.28;5041452;28;20457;-72
2022/11/23 11:14:04;;;;;;;5.47;1.80;;;;;;;18.50;31.34;96132.97;5044003;28;20829;-72
2022/11/23 11:16:36;;;;;;;5.03;2.00;;;;;;;18.67;31.82;96127.78;5030190;28;20453;-72
2022/11/23 11:19:25;;;;;;;2.67;1.40;;;;;;;18.47;31.35;96136.09;5038261;28;20426;-72
2022/11/23 11:21:50;;;;;;;5.37;1.80;;;;;;;18.63;31.47;96122.16;5041445;28;20565;-71
2022/11/23 11:24:31;;;;;;;4.03;1.47;;;;;;;18.16;31.85;96120.22;5041732;28;20879;-71
2022/11/23 11:26:58;;;;;;;3.70;1.40;;;;;;;18.08;32.39;96123.22;5044376;28;20230;-71
2022/11/23 11:29:33;;;;;;;2.20;1.37;;;;;;;17.83;32.60;96120.69;5043555;28;20458;-72
2022/11/23 11:32:37;;;;;;;5.50;1.50;;;;;;;18.22;31.85;96115.88;5047623;28;20430;-71
2022/11/23 11:35:13;;;;;;;2.70;1.40;;;;;;;18.65;32.03;96112.13;4986708;28;20481;-72
2022/11/23 11:37:48;;;;;;;2.40;1.43;;;;;;;18.59;31.03;96120.97;5031196;28;20421;-72
2022/11/23 11:40:19;;;;;;;3.70;1.47;;;;;;;18.42;30.94;96110.25;5037018;28;20464;-71
2022/11/23 11:42:51;;;;;;;4.70;1.60;;;;;;;18.27;30.39;96108.03;5048117;28;20436;-71